Aces Wild — WDE3369 — position and weather

sailwx.info

Track history (hours):
 
Tides and Currents Weather Stations Pressure Air Temp Water Temp Dewpoint Dewpoint Depression Visibility Wind Speed Wind Dir Waves Ship Positions

Aces Wild

Owner: C & C Boats, Inc., Huntington Beach, CA. More information available from US FCC via Universal Licensing System and Coast Guard Vessel Documentation Center.

Last reported at 2018-Feb-23 15:36 UTC. Time now 2018-Feb-23 18:45 UTC.
Position N 34°26' W 119°55'.

Length 34 m.

Type: Passenger vessel. MMSI: 367338120.

Date/timePositionNaut miles runAvg speedWind from/ knotsBaromVisibWave heightAir tempDewpointWater temp
2018-Feb-23 15:36N 34°26' W 119°55'0 0.1
2018-Feb-23 15:30N 34°26' W 119°55'0 0.6
2018-Feb-23 14:58N 34°26' W 119°55'0 0.3
2018-Feb-23 14:27N 34°26' W 119°55'2 4.5
2018-Feb-23 13:59N 34°24' W 119°55'2 2.0
2018-Feb-23 13:03N 34°26' W 119°55'0 0.0
2018-Feb-23 04:18N 34°26' W 119°55'0 0.1
2018-Feb-23 02:18N 34°25' W 119°56'2 4.2
2018-Feb-23 01:56N 34°24' W 119°55'2 0.6
2018-Feb-22 23:23N 34°26' W 119°55'0 0.0
2018-Feb-22 22:46N 34°26' W 119°55'0 0.0
2018-Feb-22 20:01N 34°26' W 119°55'0 0.0
2018-Feb-22 19:58N 34°26' W 119°55'0 0.0
2018-Feb-22 19:21N 34°26' W 119°55'2 3.7
2018-Feb-22 18:52N 34°24' W 119°55'2 3.8
2018-Feb-22 18:24N 34°26' W 119°55'2 5.7
2018-Feb-22 18:00N 34°23' W 119°54'0 0.1
2018-Feb-22 16:06N 34°23' W 119°55'0 2.7
2018-Feb-22 15:57N 34°24' W 119°55'2 4.6
2018-Feb-22 15:29N 34°26' W 119°55'0 0.4
2018-Feb-22 14:35N 34°26' W 119°55'0 3.1
2018-Feb-22 14:29N 34°26' W 119°55'2 4.1
2018-Feb-22 14:00N 34°24' W 119°55'2 1.7
2018-Feb-22 12:58N 34°26' W 119°55'0 0.0
2018-Feb-22 12:29N 34°26' W 119°55'0 0.0
2018-Feb-22 11:42N 34°26' W 119°55'0 0.0
2018-Feb-22 08:12N 34°26' W 119°55'0 0.0
2018-Feb-22 07:54N 34°26' W 119°55'0 0.0
2018-Feb-22 02:39N 34°26' W 119°55'0 0.0
2018-Feb-22 02:30N 34°26' W 119°55'2 4.6
2018-Feb-22 02:00N 34°23' W 119°54'2 1.5
2018-Feb-22 00:30N 34°26' W 119°55'2 3.6
2018-Feb-21 23:55N 34°24' W 119°54'2 1.4
2018-Feb-21 22:10N 34°26' W 119°55'0 0.3
2018-Feb-21 21:58N 34°26' W 119°55'3 4.3
2018-Feb-21 21:23N 34°23' W 119°55'3 4.2
2018-Feb-21 20:47N 34°26' W 119°55'0 0.3
2018-Feb-21 19:38N 34°26' W 119°55'0 0.0
2018-Feb-21 19:26N 34°26' W 119°55'0 0.0
2018-Feb-21 18:49N 34°26' W 119°55'0 0.0
2018-Feb-21 18:24N 34°26' W 119°55'2 3.5
2018-Feb-21 17:57N 34°24' W 119°55'2 4.1
2018-Feb-21 17:30N 34°26' W 119°55'0 0.3
2018-Feb-21 17:00N 34°26' W 119°55'1 2.0
2018-Feb-21 16:15N 34°24' W 119°56'1 4.0
2018-Feb-21 15:54N 34°26' W 119°55'0 0.2
2018-Feb-21 14:40N 34°26' W 119°55'0 2.0
2018-Feb-21 14:29N 34°26' W 119°55'2 4.0
2018-Feb-21 14:00N 34°24' W 119°55'2 0.3
2018-Feb-21 09:05N 34°26' W 119°55'0 0.0
2018-Feb-21 08:47N 34°26' W 119°55'0 0.0
2018-Feb-21 07:54N 34°26' W 119°55'0 0.0
2018-Feb-21 02:52N 34°26' W 119°55'0 0.0
2018-Feb-21 02:23N 34°26' W 119°55'2 4.6
2018-Feb-21 01:54N 34°23' W 119°54'2 1.2
2018-Feb-21 00:04N 34°26' W 119°55'0 2.1
2018-Feb-21 00:00N 34°26' W 119°55'2 0.9
2018-Feb-20 21:53N 34°24' W 119°55'1 2.1
2018-Feb-20 21:29N 34°23' W 119°54'0 0.4
2018-Feb-20 20:59N 34°24' W 119°55'2 3.9
2018-Feb-20 20:27N 34°26' W 119°55'0 0.6
2018-Feb-20 19:59N 34°26' W 119°55'2 1.9
2018-Feb-20 18:39N 34°23' W 119°55'0 0.0
2018-Feb-20 18:28N 34°23' W 119°55'0 0.0
2018-Feb-20 16:38N 34°23' W 119°55'0 0.5
2018-Feb-20 16:14N 34°23' W 119°54'2 9.0
2018-Feb-20 15:59N 34°26' W 119°56'0 0.6
2018-Feb-20 15:30N 34°26' W 119°55'0 0.3
2018-Feb-20 14:30N 34°26' W 119°55'2 3.2
2018-Feb-20 13:59N 34°24' W 119°55'2 2.6
2018-Feb-20 13:13N 34°26' W 119°55'0 0.1
2018-Feb-20 13:00N 34°26' W 119°55'0 0.5
2018-Feb-20 12:27N 34°26' W 119°55'0 0.0
2018-Feb-20 11:30N 34°26' W 119°55'0 0.0
2018-Feb-20 10:55N 34°26' W 119°55'0 0.0
2018-Feb-20 07:17N 34°26' W 119°55'0 0.0
2018-Feb-20 06:53N 34°26' W 119°55'0 0.0
2018-Feb-20 06:29N 34°26' W 119°55'0 0.0
2018-Feb-20 05:55N 34°26' W 119°55'0 0.0
2018-Feb-20 05:13N 34°26' W 119°55'0 0.0
2018-Feb-20 04:37N 34°26' W 119°55'0 0.0
2018-Feb-20 02:39N 34°26' W 119°55'0 0.4
2018-Feb-20 02:30N 34°26' W 119°55'2 2.9
2018-Feb-20 01:55N 34°24' W 119°55'1 1.3
2018-Feb-20 01:22N 34°23' W 119°54'0 0.2
2018-Feb-20 00:52N 34°23' W 119°55'0 0.1
2018-Feb-19 21:59N 34°23' W 119°54'2 2.8
2018-Feb-19 21:11N 34°26' W 119°55'0 0.1
2018-Feb-19 20:25N 34°26' W 119°55'0 0.1
2018-Feb-19 19:15N 34°26' W 119°55'0 0.0
2018-Feb-19 18:56N 34°26' W 119°55'0 0.0
2018-Feb-19 18:22N 34°26' W 119°55'0 0.3
2018-Feb-19 17:28N 34°26' W 119°55'0 0.4
2018-Feb-19 16:48N 34°26' W 119°55'0 0.0
2018-Feb-19 16:23N 34°26' W 119°55'0 0.0
2018-Feb-19 15:16N 34°26' W 119°55'2 6.1
2018-Feb-19 14:54N 34°23' W 119°54'3 4.3
2018-Feb-19 14:18N 34°26' W 119°55'2 5.0
2018-Feb-19 13:53N 34°24' W 119°55'2 1.4
2018-Feb-19 12:33N 34°26' W 119°55'0 0.0
2018-Feb-19 12:27N 34°26' W 119°55'0 0.0
2018-Feb-19 07:15N 34°26' W 119°55'0 0.0
2018-Feb-19 03:06N 34°26' W 119°55'0 0.0
2018-Feb-19 02:42N 34°26' W 119°55'0 0.0
2018-Feb-19 02:08N 34°26' W 119°55'1 4.9
2018-Feb-19 02:00N 34°25' W 119°55'1 0.2
2018-Feb-18 22:08N 34°26' W 119°55'0 0.0
2018-Feb-18 21:56N 34°26' W 119°55'0 0.0
2018-Feb-18 21:15N 34°26' W 119°55'0 0.0
2018-Feb-18 20:01N 34°26' W 119°55'0 0.0
2018-Feb-18 19:58N 34°26' W 119°55'0 0.0
2018-Feb-18 19:19N 34°26' W 119°55'0 0.0
2018-Feb-18 17:39N 34°26' W 119°55'0 0.0
2018-Feb-18 17:30N 34°26' W 119°55'0 0.0
2018-Feb-18 15:45N 34°26' W 119°55'0 0.0
2018-Feb-18 15:29N 34°26' W 119°55'0 0.0
2018-Feb-18 14:05N 34°26' W 119°55'0 1.4
2018-Feb-18 14:00N 34°25' W 119°55'0 0.1
2018-Feb-18 12:47N 34°26' W 119°55'0 0.0
2018-Feb-18 12:21N 34°26' W 119°55'0 0.0
2018-Feb-18 11:57N 34°26' W 119°55'0 0.0
2018-Feb-18 11:18N 34°26' W 119°55'0 0.0
2018-Feb-18 10:57N 34°26' W 119°55'0 0.0
2018-Feb-18 10:26N 34°26' W 119°55'0 0.0
2018-Feb-18 09:56N 34°26' W 119°55'0 0.0
2018-Feb-18 08:29N 34°26' W 119°55'0 0.0
2018-Feb-18 06:58N 34°26' W 119°55'0 0.0
2018-Feb-18 06:17N 34°26' W 119°55'0 0.0
2018-Feb-18 06:00N 34°26' W 119°55'0 0.0
2018-Feb-18 05:30N 34°26' W 119°55'0 0.0
2018-Feb-18 04:57N 34°26' W 119°55'0 0.1
2018-Feb-18 02:23N 34°26' W 119°55'0 0.2
2018-Feb-18 01:55N 34°26' W 119°55'0 0.5
2018-Feb-18 01:28N 34°26' W 119°55'0 0.0
2018-Feb-18 00:46N 34°26' W 119°55'0 0.0
2018-Feb-18 00:22N 34°26' W 119°55'0 0.0
2018-Feb-17 23:37N 34°26' W 119°55'0 0.0
2018-Feb-17 23:28N 34°26' W 119°55'0 0.0
2018-Feb-17 22:58N 34°26' W 119°55'0 0.0
2018-Feb-17 22:27N 34°26' W 119°55'0 0.0
2018-Feb-17 21:56N 34°26' W 119°55'0 0.0
2018-Feb-17 20:27N 34°26' W 119°55'0 0.0
2018-Feb-17 20:00N 34°26' W 119°55'0 0.0
2018-Feb-17 19:17N 34°26' W 119°55'0 0.0
2018-Feb-17 18:42N 34°26' W 119°55'0 0.0
2018-Feb-17 18:15N 34°26' W 119°55'0 0.0
2018-Feb-17 17:46N 34°26' W 119°55'0 0.0
2018-Feb-17 17:22N 34°26' W 119°55'0 0.0
2018-Feb-17 16:25N 34°26' W 119°55'0 0.0
2018-Feb-17 15:19N 34°26' W 119°55'0 0.0
2018-Feb-17 14:58N 34°26' W 119°55'0 0.0
2018-Feb-17 14:17N 34°26' W 119°55'1 4.1
2018-Feb-17 14:00N 34°24' W 119°56'1 2.6
2018-Feb-17 13:30N 34°26' W 119°55'0 0.1
2018-Feb-17 10:44N 34°26' W 119°55'0 0.0
2018-Feb-17 10:29N 34°26' W 119°55'0 0.0
2018-Feb-17 09:41N 34°26' W 119°55'0 0.0
2018-Feb-17 09:19N 34°26' W 119°55'0 0.0
2018-Feb-17 08:52N 34°26' W 119°55'0 0.0
2018-Feb-17 08:28N 34°26' W 119°55'0 0.0
2018-Feb-17 07:55N 34°26' W 119°55'0 0.0
2018-Feb-17 07:13N 34°26' W 119°55'0 0.0
2018-Feb-17 07:00N 34°26' W 119°55'0 0.0
2018-Feb-17 04:59N 34°26' W 119°55'0 0.0
2018-Feb-17 04:08N 34°26' W 119°55'0 0.0
2018-Feb-17 03:50N 34°26' W 119°55'0 0.0
2018-Feb-17 03:24N 34°26' W 119°55'0 0.0
2018-Feb-17 02:20N 34°26' W 119°55'0 0.7
2018-Feb-17 01:49N 34°25' W 119°56'0 0.1
2018-Feb-16 21:45N 34°26' W 119°55'0 0.0
2018-Feb-16 17:51N 34°26' W 119°55'0 0.0
2018-Feb-16 17:27N 34°26' W 119°55'0 0.0
2018-Feb-16 17:00N 34°26' W 119°55'0 0.0
2018-Feb-16 15:55N 34°26' W 119°55'0 0.6
2018-Feb-16 15:28N 34°26' W 119°55'0 0.1
2018-Feb-16 14:52N 34°26' W 119°55'0 0.1
2018-Feb-16 14:25N 34°26' W 119°55'1 3.0
2018-Feb-16 13:57N 34°24' W 119°56'1 0.2
2018-Feb-16 08:24N 34°26' W 119°55'0 0.0
2018-Feb-16 07:58N 34°26' W 119°55'0 0.0
2018-Feb-16 05:17N 34°26' W 119°55'0 0.0
2018-Feb-16 04:20N 34°26' W 119°55'0 0.0
2018-Feb-16 03:59N 34°26' W 119°55'0 0.0
2018-Feb-16 03:18N 34°26' W 119°55'0 0.0
2018-Feb-16 02:48N 34°26' W 119°55'0 0.0
2018-Feb-16 02:20N 34°26' W 119°55'2 5.0
2018-Feb-16 01:53N 34°23' W 119°54'2 1.2
2018-Feb-16 00:03N 34°26' W 119°55'0 0.0
2018-Feb-15 23:04N 34°26' W 119°55'0 0.0
2018-Feb-15 22:15N 34°26' W 119°55'0 1.1
2018-Feb-15 22:00N 34°26' W 119°55'2 0.4
2018-Feb-15 16:18N 34°23' W 119°55'2 3.0
2018-Feb-15 15:29N 34°26' W 119°55'0 0.4
2018-Feb-15 14:51N 34°26' W 119°55'0 0.7
2018-Feb-15 14:25N 34°26' W 119°55'2 4.4
2018-Feb-15 13:59N 34°24' W 119°55'2 3.0
2018-Feb-15 13:27N 34°26' W 119°55'0 0.0
2018-Feb-15 11:21N 34°26' W 119°55'0 0.0
2018-Feb-15 07:38N 34°26' W 119°55'0 0.0
2018-Feb-15 04:58N 34°26' W 119°55'0 0.0
2018-Feb-15 02:34N 34°26' W 119°55'0 0.0
2018-Feb-15 02:19N 34°26' W 119°55'2 6.2
2018-Feb-15 01:57N 34°23' W 119°54'2 1.7
2018-Feb-15 00:35N 34°26' W 119°55'0 0.0
2018-Feb-14 22:07N 34°26' W 119°55'0 3.4
2018-Feb-14 22:00N 34°25' W 119°56'0 0.1
2018-Feb-14 18:57N 34°26' W 119°55'0 0.4
2018-Feb-14 18:16N 34°26' W 119°55'0 0.3
2018-Feb-14 17:59N 34°26' W 119°55'0 0.1
2018-Feb-14 17:30N 34°26' W 119°55'0 0.0
2018-Feb-14 16:52N 34°26' W 119°55'0 0.4
2018-Feb-14 16:15N 34°26' W 119°55'0 0.8
2018-Feb-14 15:55N 34°26' W 119°55'0 0.4
2018-Feb-14 15:19N 34°26' W 119°56'2 2.4
2018-Feb-14 14:39N 34°24' W 119°56'211.6
2018-Feb-14 14:30N 34°26' W 119°55'2 4.6
2018-Feb-14 13:59N 34°24' W 119°55'2 3.4
2018-Feb-14 13:23N 34°26' W 119°55'0 0.0
2018-Feb-14 10:28N 34°26' W 119°55'0 0.0
2018-Feb-14 07:25N 34°26' W 119°55'0 0.0
2018-Feb-14 07:00N 34°26' W 119°55'0 0.0
2018-Feb-14 05:33N 34°26' W 119°55'0 0.0
2018-Feb-14 05:07N 34°26' W 119°55'0 0.0
2018-Feb-14 04:41N 34°26' W 119°55'0 0.0
2018-Feb-14 04:17N 34°26' W 119°55'0 0.0
2018-Feb-14 02:30N 34°26' W 119°55'2 3.4
2018-Feb-14 01:53N 34°24' W 119°55'2 6.4
2018-Feb-14 01:30N 34°26' W 119°55'0 0.3
2018-Feb-14 00:34N 34°26' W 119°55'0 0.0
2018-Feb-14 00:28N 34°26' W 119°55'0 0.0
2018-Feb-13 23:57N 34°26' W 119°55'0 0.0
2018-Feb-13 23:30N 34°26' W 119°55'0 0.0
2018-Feb-13 23:00N 34°26' W 119°55'0 0.0
2018-Feb-13 22:29N 34°26' W 119°55'1 1.6
2018-Feb-13 21:59N 34°25' W 119°56'2 2.2
2018-Feb-13 21:12N 34°23' W 119°55'0 0.0
2018-Feb-13 20:59N 34°23' W 119°55'0 0.0
2018-Feb-13 16:34N 34°23' W 119°55'0 1.6
2018-Feb-13 16:16N 34°24' W 119°55'  
Track history (hours):
 
Tides and Currents Weather Stations Pressure Air Temp Water Temp Dewpoint Dewpoint Depression Visibility Wind Speed Wind Dir Waves Ship Positions

Aces Wild

Owner: C & C Boats, Inc., Huntington Beach, CA. More information available from US FCC via Universal Licensing System and Coast Guard Vessel Documentation Center.

Last reported at 2018-Feb-23 15:36 UTC. Time now 2018-Feb-23 18:45 UTC.
Position N 34°26' W 119°55'.

Length 34 m.

Type: Passenger vessel. MMSI: 367338120.

Date/timePositionNaut miles runAvg speedWind from/ knotsBaromVisibWave heightAir tempDewpointWater temp
2018-Feb-23 15:36N 34°26' W 119°55'0 0.1
2018-Feb-23 15:30N 34°26' W 119°55'0 0.6
2018-Feb-23 14:58N 34°26' W 119°55'0 0.3
2018-Feb-23 14:27N 34°26' W 119°55'2 4.5
2018-Feb-23 13:59N 34°24' W 119°55'2 2.0
2018-Feb-23 13:03N 34°26' W 119°55'0 0.0
2018-Feb-23 04:18N 34°26' W 119°55'0 0.1
2018-Feb-23 02:18N 34°25' W 119°56'2 4.2
2018-Feb-23 01:56N 34°24' W 119°55'2 0.6
2018-Feb-22 23:23N 34°26' W 119°55'0 0.0
2018-Feb-22 22:46N 34°26' W 119°55'0 0.0
2018-Feb-22 20:01N 34°26' W 119°55'0 0.0
2018-Feb-22 19:58N 34°26' W 119°55'0 0.0
2018-Feb-22 19:21N 34°26' W 119°55'2 3.7
2018-Feb-22 18:52N 34°24' W 119°55'2 3.8
2018-Feb-22 18:24N 34°26' W 119°55'2 5.7
2018-Feb-22 18:00N 34°23' W 119°54'0 0.1
2018-Feb-22 16:06N 34°23' W 119°55'0 2.7
2018-Feb-22 15:57N 34°24' W 119°55'2 4.6
2018-Feb-22 15:29N 34°26' W 119°55'0 0.4
2018-Feb-22 14:35N 34°26' W 119°55'0 3.1
2018-Feb-22 14:29N 34°26' W 119°55'2 4.1
2018-Feb-22 14:00N 34°24' W 119°55'2 1.7
2018-Feb-22 12:58N 34°26' W 119°55'0 0.0
2018-Feb-22 12:29N 34°26' W 119°55'0 0.0
2018-Feb-22 11:42N 34°26' W 119°55'0 0.0
2018-Feb-22 08:12N 34°26' W 119°55'0 0.0
2018-Feb-22 07:54N 34°26' W 119°55'0 0.0
2018-Feb-22 02:39N 34°26' W 119°55'0 0.0
2018-Feb-22 02:30N 34°26' W 119°55'2 4.6
2018-Feb-22 02:00N 34°23' W 119°54'2 1.5
2018-Feb-22 00:30N 34°26' W 119°55'2 3.6
2018-Feb-21 23:55N 34°24' W 119°54'2 1.4
2018-Feb-21 22:10N 34°26' W 119°55'0 0.3
2018-Feb-21 21:58N 34°26' W 119°55'3 4.3
2018-Feb-21 21:23N 34°23' W 119°55'3 4.2
2018-Feb-21 20:47N 34°26' W 119°55'0 0.3
2018-Feb-21 19:38N 34°26' W 119°55'0 0.0
2018-Feb-21 19:26N 34°26' W 119°55'0 0.0
2018-Feb-21 18:49N 34°26' W 119°55'0 0.0
2018-Feb-21 18:24N 34°26' W 119°55'2 3.5
2018-Feb-21 17:57N 34°24' W 119°55'2 4.1
2018-Feb-21 17:30N 34°26' W 119°55'0 0.3
2018-Feb-21 17:00N 34°26' W 119°55'1 2.0
2018-Feb-21 16:15N 34°24' W 119°56'1 4.0
2018-Feb-21 15:54N 34°26' W 119°55'0 0.2
2018-Feb-21 14:40N 34°26' W 119°55'0 2.0
2018-Feb-21 14:29N 34°26' W 119°55'2 4.0
2018-Feb-21 14:00N 34°24' W 119°55'2 0.3
2018-Feb-21 09:05N 34°26' W 119°55'0 0.0
2018-Feb-21 08:47N 34°26' W 119°55'0 0.0
2018-Feb-21 07:54N 34°26' W 119°55'0 0.0
2018-Feb-21 02:52N 34°26' W 119°55'0 0.0
2018-Feb-21 02:23N 34°26' W 119°55'2 4.6
2018-Feb-21 01:54N 34°23' W 119°54'2 1.2
2018-Feb-21 00:04N 34°26' W 119°55'0 2.1
2018-Feb-21 00:00N 34°26' W 119°55'2 0.9
2018-Feb-20 21:53N 34°24' W 119°55'1 2.1
2018-Feb-20 21:29N 34°23' W 119°54'0 0.4
2018-Feb-20 20:59N 34°24' W 119°55'2 3.9
2018-Feb-20 20:27N 34°26' W 119°55'0 0.6
2018-Feb-20 19:59N 34°26' W 119°55'2 1.9
2018-Feb-20 18:39N 34°23' W 119°55'0 0.0
2018-Feb-20 18:28N 34°23' W 119°55'0 0.0
2018-Feb-20 16:38N 34°23' W 119°55'0 0.5
2018-Feb-20 16:14N 34°23' W 119°54'2 9.0
2018-Feb-20 15:59N 34°26' W 119°56'0 0.6
2018-Feb-20 15:30N 34°26' W 119°55'0 0.3
2018-Feb-20 14:30N 34°26' W 119°55'2 3.2
2018-Feb-20 13:59N 34°24' W 119°55'2 2.6
2018-Feb-20 13:13N 34°26' W 119°55'0 0.1
2018-Feb-20 13:00N 34°26' W 119°55'0 0.5
2018-Feb-20 12:27N 34°26' W 119°55'0 0.0
2018-Feb-20 11:30N 34°26' W 119°55'0 0.0
2018-Feb-20 10:55N 34°26' W 119°55'0 0.0
2018-Feb-20 07:17N 34°26' W 119°55'0 0.0
2018-Feb-20 06:53N 34°26' W 119°55'0 0.0
2018-Feb-20 06:29N 34°26' W 119°55'0 0.0
2018-Feb-20 05:55N 34°26' W 119°55'0 0.0
2018-Feb-20 05:13N 34°26' W 119°55'0 0.0
2018-Feb-20 04:37N 34°26' W 119°55'0 0.0
2018-Feb-20 02:39N 34°26' W 119°55'0 0.4
2018-Feb-20 02:30N 34°26' W 119°55'2 2.9
2018-Feb-20 01:55N 34°24' W 119°55'1 1.3
2018-Feb-20 01:22N 34°23' W 119°54'0 0.2
2018-Feb-20 00:52N 34°23' W 119°55'0 0.1
2018-Feb-19 21:59N 34°23' W 119°54'2 2.8
2018-Feb-19 21:11N 34°26' W 119°55'0 0.1
2018-Feb-19 20:25N 34°26' W 119°55'0 0.1
2018-Feb-19 19:15N 34°26' W 119°55'0 0.0
2018-Feb-19 18:56N 34°26' W 119°55'0 0.0
2018-Feb-19 18:22N 34°26' W 119°55'0 0.3
2018-Feb-19 17:28N 34°26' W 119°55'0 0.4
2018-Feb-19 16:48N 34°26' W 119°55'0 0.0
2018-Feb-19 16:23N 34°26' W 119°55'0 0.0
2018-Feb-19 15:16N 34°26' W 119°55'2 6.1
2018-Feb-19 14:54N 34°23' W 119°54'3 4.3
2018-Feb-19 14:18N 34°26' W 119°55'2 5.0
2018-Feb-19 13:53N 34°24' W 119°55'2 1.4
2018-Feb-19 12:33N 34°26' W 119°55'0 0.0
2018-Feb-19 12:27N 34°26' W 119°55'0 0.0
2018-Feb-19 07:15N 34°26' W 119°55'0 0.0
2018-Feb-19 03:06N 34°26' W 119°55'0 0.0
2018-Feb-19 02:42N 34°26' W 119°55'0 0.0
2018-Feb-19 02:08N 34°26' W 119°55'1 4.9
2018-Feb-19 02:00N 34°25' W 119°55'1 0.2
2018-Feb-18 22:08N 34°26' W 119°55'0 0.0
2018-Feb-18 21:56N 34°26' W 119°55'0 0.0
2018-Feb-18 21:15N 34°26' W 119°55'0 0.0
2018-Feb-18 20:01N 34°26' W 119°55'0 0.0
2018-Feb-18 19:58N 34°26' W 119°55'0 0.0
2018-Feb-18 19:19N 34°26' W 119°55'0 0.0
2018-Feb-18 17:39N 34°26' W 119°55'0 0.0
2018-Feb-18 17:30N 34°26' W 119°55'0 0.0
2018-Feb-18 15:45N 34°26' W 119°55'0 0.0
2018-Feb-18 15:29N 34°26' W 119°55'0 0.0
2018-Feb-18 14:05N 34°26' W 119°55'0 1.4
2018-Feb-18 14:00N 34°25' W 119°55'0 0.1
2018-Feb-18 12:47N 34°26' W 119°55'0 0.0
2018-Feb-18 12:21N 34°26' W 119°55'0 0.0
2018-Feb-18 11:57N 34°26' W 119°55'0 0.0
2018-Feb-18 11:18N 34°26' W 119°55'0 0.0
2018-Feb-18 10:57N 34°26' W 119°55'0 0.0
2018-Feb-18 10:26N 34°26' W 119°55'0 0.0
2018-Feb-18 09:56N 34°26' W 119°55'0 0.0
2018-Feb-18 08:29N 34°26' W 119°55'0 0.0
2018-Feb-18 06:58N 34°26' W 119°55'0 0.0
2018-Feb-18 06:17N 34°26' W 119°55'0 0.0
2018-Feb-18 06:00N 34°26' W 119°55'0 0.0
2018-Feb-18 05:30N 34°26' W 119°55'0 0.0
2018-Feb-18 04:57N 34°26' W 119°55'0 0.1
2018-Feb-18 02:23N 34°26' W 119°55'0 0.2
2018-Feb-18 01:55N 34°26' W 119°55'0 0.5
2018-Feb-18 01:28N 34°26' W 119°55'0 0.0
2018-Feb-18 00:46N 34°26' W 119°55'0 0.0
2018-Feb-18 00:22N 34°26' W 119°55'0 0.0
2018-Feb-17 23:37N 34°26' W 119°55'0 0.0
2018-Feb-17 23:28N 34°26' W 119°55'0 0.0
2018-Feb-17 22:58N 34°26' W 119°55'0 0.0
2018-Feb-17 22:27N 34°26' W 119°55'0 0.0
2018-Feb-17 21:56N 34°26' W 119°55'0 0.0
2018-Feb-17 20:27N 34°26' W 119°55'0 0.0
2018-Feb-17 20:00N 34°26' W 119°55'0 0.0
2018-Feb-17 19:17N 34°26' W 119°55'0 0.0
2018-Feb-17 18:42N 34°26' W 119°55'0 0.0
2018-Feb-17 18:15N 34°26' W 119°55'0 0.0
2018-Feb-17 17:46N 34°26' W 119°55'0 0.0
2018-Feb-17 17:22N 34°26' W 119°55'0 0.0
2018-Feb-17 16:25N 34°26' W 119°55'0 0.0
2018-Feb-17 15:19N 34°26' W 119°55'0 0.0
2018-Feb-17 14:58N 34°26' W 119°55'0 0.0
2018-Feb-17 14:17N 34°26' W 119°55'1 4.1
2018-Feb-17 14:00N 34°24' W 119°56'1 2.6
2018-Feb-17 13:30N 34°26' W 119°55'0 0.1
2018-Feb-17 10:44N 34°26' W 119°55'0 0.0
2018-Feb-17 10:29N 34°26' W 119°55'0 0.0
2018-Feb-17 09:41N 34°26' W 119°55'0 0.0
2018-Feb-17 09:19N 34°26' W 119°55'0 0.0
2018-Feb-17 08:52N 34°26' W 119°55'0 0.0
2018-Feb-17 08:28N 34°26' W 119°55'0 0.0
2018-Feb-17 07:55N 34°26' W 119°55'0 0.0
2018-Feb-17 07:13N 34°26' W 119°55'0 0.0
2018-Feb-17 07:00N 34°26' W 119°55'0 0.0
2018-Feb-17 04:59N 34°26' W 119°55'0 0.0
2018-Feb-17 04:08N 34°26' W 119°55'0 0.0
2018-Feb-17 03:50N 34°26' W 119°55'0 0.0
2018-Feb-17 03:24N 34°26' W 119°55'0 0.0
2018-Feb-17 02:20N 34°26' W 119°55'0 0.7
2018-Feb-17 01:49N 34°25' W 119°56'0 0.1
2018-Feb-16 21:45N 34°26' W 119°55'0 0.0
2018-Feb-16 17:51N 34°26' W 119°55'0 0.0
2018-Feb-16 17:27N 34°26' W 119°55'0 0.0
2018-Feb-16 17:00N 34°26' W 119°55'0 0.0
2018-Feb-16 15:55N 34°26' W 119°55'0 0.6
2018-Feb-16 15:28N 34°26' W 119°55'0 0.1
2018-Feb-16 14:52N 34°26' W 119°55'0 0.1
2018-Feb-16 14:25N 34°26' W 119°55'1 3.0
2018-Feb-16 13:57N 34°24' W 119°56'1 0.2
2018-Feb-16 08:24N 34°26' W 119°55'0 0.0
2018-Feb-16 07:58N 34°26' W 119°55'0 0.0
2018-Feb-16 05:17N 34°26' W 119°55'0 0.0
2018-Feb-16 04:20N 34°26' W 119°55'0 0.0
2018-Feb-16 03:59N 34°26' W 119°55'0 0.0
2018-Feb-16 03:18N 34°26' W 119°55'0 0.0
2018-Feb-16 02:48N 34°26' W 119°55'0 0.0
2018-Feb-16 02:20N 34°26' W 119°55'2 5.0
2018-Feb-16 01:53N 34°23' W 119°54'2 1.2
2018-Feb-16 00:03N 34°26' W 119°55'0 0.0
2018-Feb-15 23:04N 34°26' W 119°55'0 0.0
2018-Feb-15 22:15N 34°26' W 119°55'0 1.1
2018-Feb-15 22:00N 34°26' W 119°55'2 0.4
2018-Feb-15 16:18N 34°23' W 119°55'2 3.0
2018-Feb-15 15:29N 34°26' W 119°55'0 0.4
2018-Feb-15 14:51N 34°26' W 119°55'0 0.7
2018-Feb-15 14:25N 34°26' W 119°55'2 4.4
2018-Feb-15 13:59N 34°24' W 119°55'2 3.0
2018-Feb-15 13:27N 34°26' W 119°55'0 0.0
2018-Feb-15 11:21N 34°26' W 119°55'0 0.0
2018-Feb-15 07:38N 34°26' W 119°55'0 0.0
2018-Feb-15 04:58N 34°26' W 119°55'0 0.0
2018-Feb-15 02:34N 34°26' W 119°55'0 0.0
2018-Feb-15 02:19N 34°26' W 119°55'2 6.2
2018-Feb-15 01:57N 34°23' W 119°54'2 1.7
2018-Feb-15 00:35N 34°26' W 119°55'0 0.0
2018-Feb-14 22:07N 34°26' W 119°55'0 3.4
2018-Feb-14 22:00N 34°25' W 119°56'0 0.1
2018-Feb-14 18:57N 34°26' W 119°55'0 0.4
2018-Feb-14 18:16N 34°26' W 119°55'0 0.3
2018-Feb-14 17:59N 34°26' W 119°55'0 0.1
2018-Feb-14 17:30N 34°26' W 119°55'0 0.0
2018-Feb-14 16:52N 34°26' W 119°55'0 0.4
2018-Feb-14 16:15N 34°26' W 119°55'0 0.8
2018-Feb-14 15:55N 34°26' W 119°55'0 0.4
2018-Feb-14 15:19N 34°26' W 119°56'2 2.4
2018-Feb-14 14:39N 34°24' W 119°56'211.6
2018-Feb-14 14:30N 34°26' W 119°55'2 4.6
2018-Feb-14 13:59N 34°24' W 119°55'2 3.4
2018-Feb-14 13:23N 34°26' W 119°55'0 0.0
2018-Feb-14 10:28N 34°26' W 119°55'0 0.0
2018-Feb-14 07:25N 34°26' W 119°55'0 0.0
2018-Feb-14 07:00N 34°26' W 119°55'0 0.0
2018-Feb-14 05:33N 34°26' W 119°55'0 0.0
2018-Feb-14 05:07N 34°26' W 119°55'0 0.0
2018-Feb-14 04:41N 34°26' W 119°55'0 0.0
2018-Feb-14 04:17N 34°26' W 119°55'0 0.0
2018-Feb-14 02:30N 34°26' W 119°55'2 3.4
2018-Feb-14 01:53N 34°24' W 119°55'2 6.4
2018-Feb-14 01:30N 34°26' W 119°55'0 0.3
2018-Feb-14 00:34N 34°26' W 119°55'0 0.0
2018-Feb-14 00:28N 34°26' W 119°55'0 0.0
2018-Feb-13 23:57N 34°26' W 119°55'0 0.0
2018-Feb-13 23:30N 34°26' W 119°55'0 0.0
2018-Feb-13 23:00N 34°26' W 119°55'0 0.0
2018-Feb-13 22:29N 34°26' W 119°55'1 1.6
2018-Feb-13 21:59N 34°25' W 119°56'2 2.2
2018-Feb-13 21:12N 34°23' W 119°55'0 0.0
2018-Feb-13 20:59N 34°23' W 119°55'0 0.0
2018-Feb-13 16:34N 34°23' W 119°55'0 1.6
2018-Feb-13 16:16N 34°24' W 119°55'  

Dump ship's entire track history